Time;durP1;ratioP1;P1;durP2;ratioP2;P2;SDS_P1;SDS_P2;PMS_P1;PMS_P2;Temp;Humidity;BMP_temperature;BMP_pressure;BME280_temperature;BME280_humidity;BME280_pressure;Samples;Min_cycle;Max_cycle;Signal;HPM_P1;HPM_P2
2023/06/17 00:02:01;;;;;;;12.43;9.40;;;20.10;99.90;;;;;;5086793;28;20534;-80
2023/06/17 00:04:27;;;;;;;13.60;9.33;;;20.10;99.90;;;;;;5086374;28;20195;-79
2023/06/17 00:06:53;;;;;;;9.70;8.70;;;20.10;99.90;;;;;;5090479;28;20588;-82
2023/06/17 00:09:20;;;;;;;9.97;9.00;;;20.00;99.90;;;;;;5090830;28;20195;-82
2023/06/17 00:11:47;;;;;;;10.90;9.80;;;20.00;99.90;;;;;;5072106;28;20413;-82
2023/06/17 00:14:14;;;;;;;10.13;9.23;;;20.00;99.90;;;;;;5090271;28;20478;-80
2023/06/17 00:16:43;;;;;;;11.50;9.87;;;20.00;99.90;;;;;;5072004;28;20823;-80
2023/06/17 00:19:15;;;;;;;10.20;9.20;;;20.00;99.90;;;;;;5090570;28;20420;-80
2023/06/17 00:21:48;;;;;;;10.57;9.50;;;19.90;99.90;;;;;;5090246;28;20401;-80
2023/06/17 00:24:14;;;;;;;11.13;10.03;;;19.90;99.90;;;;;;5090010;28;20424;-80
2023/06/17 00:26:40;;;;;;;9.87;8.97;;;19.90;99.90;;;;;;5071948;28;20967;-83
2023/06/17 00:29:06;;;;;;;10.83;9.73;;;19.90;99.90;;;;;;5089361;28;20420;-80
2023/06/17 00:31:32;;;;;;;10.13;9.13;;;19.90;99.90;;;;;;5089774;28;20400;-82
2023/06/17 00:33:58;;;;;;;11.10;10.03;;;19.90;99.90;;;;;;5090114;28;21069;-82
2023/06/17 00:36:24;;;;;;;12.83;9.70;;;19.90;99.90;;;;;;5071575;28;20411;-80
2023/06/17 00:38:50;;;;;;;11.37;9.80;;;19.90;99.90;;;;;;5090610;28;20243;-81
2023/06/17 00:41:16;;;;;;;13.17;10.17;;;19.80;99.90;;;;;;5089650;28;20182;-82
2023/06/17 00:43:42;;;;;;;11.00;9.83;;;19.80;99.90;;;;;;5089963;28;20874;-81
2023/06/17 00:46:08;;;;;;;11.97;10.77;;;19.80;99.90;;;;;;5089564;28;20401;-82
2023/06/17 00:48:34;;;;;;;11.33;10.10;;;19.80;99.90;;;;;;5090160;28;20982;-83
2023/06/17 00:51:02;;;;;;;11.47;10.23;;;19.80;99.90;;;;;;5071948;28;20418;-82
2023/06/17 00:53:31;;;;;;;12.20;10.40;;;19.80;99.90;;;;;;5071201;28;20224;-81
2023/06/17 00:56:01;;;;;;;12.90;10.20;;;19.80;99.90;;;;;;5071861;28;20986;-82
2023/06/17 00:58:27;;;;;;;11.77;10.67;;;19.70;99.90;;;;;;5089774;28;21114;-80
2023/06/17 01:00:52;;;;;;;10.77;9.77;;;19.70;99.90;;;;;;5089583;28;20519;-80
2023/06/17 01:03:18;;;;;;;12.20;10.57;;;19.70;99.90;;;;;;5089256;28;20532;-82
2023/06/17 01:05:47;;;;;;;11.43;10.23;;;19.60;99.90;;;;;;5071248;28;20571;-80
2023/06/17 01:08:28;;;;;;;11.63;10.50;;;19.70;99.90;;;;;;5070900;28;20255;-82
2023/06/17 01:10:54;;;;;;;12.70;11.50;;;19.60;99.90;;;;;;5089424;28;20435;-82
2023/06/17 01:13:23;;;;;;;11.67;10.47;;;19.60;99.90;;;;;;5087944;28;20998;-80
2023/06/17 01:15:50;;;;;;;12.83;10.87;;;19.60;99.90;;;;;;5089170;28;20204;-81
2023/06/17 01:18:19;;;;;;;12.73;11.43;;;19.60;99.90;;;;;;5088237;28;20481;-80
2023/06/17 01:20:53;;;;;;;13.53;11.47;;;19.60;99.90;;;;;;5089607;28;20435;-80
2023/06/17 01:23:23;;;;;;;12.90;11.60;;;19.50;99.90;;;;;;5089094;28;20454;-83
2023/06/17 01:25:49;;;;;;;13.57;12.13;;;19.50;99.90;;;;;;5089415;28;20926;-80
2023/06/17 01:28:17;;;;;;;13.67;12.27;;;19.40;99.90;;;;;;5088164;28;20943;-80
2023/06/17 01:30:54;;;;;;;12.73;11.33;;;19.40;99.90;;;;;;5070802;28;21035;-80
2023/06/17 01:33:20;;;;;;;13.47;11.67;;;19.40;99.90;;;;;;5088584;28;20885;-80
2023/06/17 01:36:12;;;;;;;13.10;11.73;;;19.40;99.90;;;;;;5088911;28;20448;-81
2023/06/17 01:38:45;;;;;;;14.93;12.17;;;19.30;99.90;;;;;;5089247;28;20446;-80
2023/06/17 01:41:22;;;;;;;12.67;11.57;;;19.40;99.90;;;;;;5088619;28;20933;-82
2023/06/17 01:43:49;;;;;;;12.73;11.53;;;19.30;99.90;;;;;;5088864;28;20466;-82
2023/06/17 01:46:16;;;;;;;13.23;11.83;;;19.30;99.90;;;;;;5070383;28;20421;-82
2023/06/17 01:48:43;;;;;;;12.83;11.30;;;19.30;99.90;;;;;;5089040;28;20422;-80
2023/06/17 01:51:08;;;;;;;13.23;11.83;;;19.30;99.90;;;;;;5069999;28;20776;-83
2023/06/17 01:53:34;;;;;;;26.50;13.70;;;19.20;99.90;;;;;;5088673;28;20467;-82
2023/06/17 01:56:00;;;;;;;15.20;13.60;;;19.20;99.90;;;;;;5088393;28;20189;-80
2023/06/17 01:58:26;;;;;;;14.80;13.30;;;19.30;99.90;;;;;;5088659;28;20929;-83
2023/06/17 02:00:51;;;;;;;14.40;12.90;;;19.30;99.90;;;;;;5070360;28;20644;-80
2023/06/17 02:03:17;;;;;;;13.70;12.30;;;19.30;99.90;;;;;;5087994;28;20187;-82
2023/06/17 02:05:43;;;;;;;13.87;12.47;;;19.20;99.90;;;;;;5087873;28;20688;-82
2023/06/17 02:08:09;;;;;;;14.20;12.67;;;19.30;99.90;;;;;;5087643;28;20182;-80
2023/06/17 02:10:35;;;;;;;15.47;12.73;;;19.30;99.90;;;;;;5070090;28;20519;-80
2023/06/17 02:13:07;;;;;;;15.63;13.53;;;19.30;99.90;;;;;;5088066;28;20468;-80
2023/06/17 02:15:33;;;;;;;14.97;12.73;;;19.30;99.90;;;;;;5070388;28;20209;-80
2023/06/17 02:17:59;;;;;;;14.87;13.27;;;19.20;99.90;;;;;;5087620;28;20863;-82
2023/06/17 02:20:25;;;;;;;15.23;13.00;;;19.20;99.90;;;;;;5088006;28;20239;-81
2023/06/17 02:22:51;;;;;;;15.77;13.70;;;19.20;99.90;;;;;;5069284;28;20434;-83
2023/06/17 02:25:16;;;;;;;13.80;12.40;;;19.20;99.90;;;;;;5088345;28;20790;-81
2023/06/17 02:27:42;;;;;;;15.27;13.77;;;19.10;99.90;;;;;;5087830;28;20170;-80
2023/06/17 02:30:10;;;;;;;15.00;12.27;;;19.10;99.90;;;;;;5086712;28;20191;-80
2023/06/17 02:32:36;;;;;;;16.17;12.90;;;19.10;99.90;;;;;;5086628;28;20512;-80
2023/06/17 02:35:02;;;;;;;16.00;13.50;;;19.10;99.90;;;;;;5086688;28;20446;-80
2023/06/17 02:37:28;;;;;;;13.40;12.10;;;19.10;99.90;;;;;;5087477;28;20189;-83
2023/06/17 02:39:54;;;;;;;14.93;13.40;;;19.10;99.90;;;;;;5087889;28;20786;-82
2023/06/17 02:42:20;;;;;;;16.93;15.03;;;19.00;99.90;;;;;;5087381;28;20943;-80
2023/06/17 02:44:46;;;;;;;14.73;13.20;;;19.10;99.90;;;;;;5088136;28;20483;-82
2023/06/17 02:47:11;;;;;;;15.03;13.50;;;19.10;99.90;;;;;;5087596;28;20605;-80
2023/06/17 02:49:37;;;;;;;15.77;14.17;;;19.10;99.90;;;;;;5087699;28;20192;-82
2023/06/17 02:52:03;;;;;;;14.10;12.70;;;19.10;99.90;;;;;;5087308;28;20218;-83
2023/06/17 02:54:29;;;;;;;15.77;14.17;;;19.10;99.90;;;;;;5087449;28;20297;-82
2023/06/17 02:56:55;;;;;;;15.03;13.57;;;19.10;99.90;;;;;;5085797;28;20701;-82
2023/06/17 02:59:22;;;;;;;14.40;12.67;;;19.10;99.90;;;;;;5087663;28;20237;-81
2023/06/17 03:01:48;;;;;;;15.10;13.60;;;19.10;99.90;;;;;;5069024;28;20543;-80
2023/06/17 03:04:14;;;;;;;15.40;13.80;;;19.10;99.90;;;;;;5087038;28;20468;-82
2023/06/17 03:06:44;;;;;;;15.67;13.50;;;19.10;99.90;;;;;;5087109;28;20415;-80
2023/06/17 03:09:11;;;;;;;15.03;13.57;;;19.00;99.90;;;;;;5069127;28;20222;-83
2023/06/17 03:11:37;;;;;;;17.00;13.03;;;19.00;99.90;;;;;;5068990;28;20419;-83
2023/06/17 03:14:03;;;;;;;14.97;13.47;;;19.00;99.90;;;;;;5087189;28;20610;-82
2023/06/17 03:16:31;;;;;;;16.97;14.43;;;19.00;99.90;;;;;;5087098;28;20401;-80
2023/06/17 03:18:59;;;;;;;16.33;14.10;;;19.00;99.90;;;;;;5087401;28;20441;-82
2023/06/17 03:21:25;;;;;;;16.47;14.53;;;19.00;99.90;;;;;;5087410;28;20778;-82
2023/06/17 03:23:51;;;;;;;14.23;12.73;;;19.00;99.90;;;;;;5069145;28;20489;-81
2023/06/17 03:26:17;;;;;;;19.93;13.97;;;19.00;99.90;;;;;;5087049;28;20435;-80
2023/06/17 03:28:43;;;;;;;16.73;14.83;;;19.00;99.90;;;;;;5086437;28;20712;-81
2023/06/17 03:31:10;;;;;;;15.40;13.80;;;19.00;99.90;;;;;;5087370;28;20403;-81
2023/06/17 03:33:36;;;;;;;15.73;13.40;;;19.00;99.90;;;;;;5086245;28;20215;-82
2023/06/17 03:36:01;;;;;;;15.13;13.63;;;19.00;99.90;;;;;;5087098;28;20843;-81
2023/06/17 03:38:27;;;;;;;15.73;12.80;;;18.90;99.90;;;;;;5069046;28;20193;-80
2023/06/17 03:40:53;;;;;;;16.47;14.37;;;19.00;99.90;;;;;;5088199;28;20179;-82
2023/06/17 03:43:18;;;;;;;15.17;13.67;;;18.90;99.90;;;;;;5090701;28;20618;-83
2023/06/17 03:45:44;;;;;;;15.53;13.73;;;18.90;99.90;;;;;;5091143;28;20278;-82
2023/06/17 03:48:10;;;;;;;16.73;14.53;;;19.00;99.90;;;;;;5090819;28;20181;-82
2023/06/17 03:50:35;;;;;;;16.80;15.00;;;18.90;99.90;;;;;;5072904;28;20199;-82
2023/06/17 03:53:01;;;;;;;16.00;14.33;;;18.90;99.90;;;;;;5090698;28;20211;-82
2023/06/17 03:55:27;;;;;;;16.50;13.53;;;19.00;99.90;;;;;;5091414;28;20224;-81
2023/06/17 03:57:52;;;;;;;15.50;13.83;;;19.00;99.90;;;;;;5090944;28;20230;-81
2023/06/17 04:00:19;;;;;;;15.83;14.17;;;18.90;99.90;;;;;;5072555;28;20194;-82
2023/06/17 04:02:47;;;;;;;15.80;14.20;;;19.00;99.90;;;;;;5090452;28;20181;-81
2023/06/17 04:05:13;;;;;;;19.80;15.43;;;19.00;99.90;;;;;;5090190;28;20527;-82
2023/06/17 04:07:39;;;;;;;14.87;13.37;;;19.00;99.90;;;;;;5090261;28;20439;-80
2023/06/17 04:10:09;;;;;;;16.43;14.60;;;19.00;99.90;;;;;;5090723;28;20431;-80
2023/06/17 04:12:38;;;;;;;17.00;13.90;;;19.00;99.90;;;;;;5090569;28;20899;-80
2023/06/17 04:15:08;;;;;;;15.47;13.70;;;19.00;99.90;;;;;;5072421;28;20432;-80
2023/06/17 04:17:37;;;;;;;17.33;15.27;;;19.10;99.90;;;;;;5090339;28;20441;-82
2023/06/17 04:20:12;;;;;;;16.90;14.17;;;19.10;99.90;;;;;;5072379;28;20427;-80
2023/06/17 04:22:39;;;;;;;16.10;14.43;;;19.10;99.90;;;;;;5090306;28;20550;-81
2023/06/17 04:25:06;;;;;;;16.33;14.60;;;19.10;99.90;;;;;;5090551;28;20950;-82
2023/06/17 04:27:32;;;;;;;16.70;14.87;;;19.20;99.90;;;;;;5090104;28;20501;-80
2023/06/17 04:29:57;;;;;;;18.37;14.40;;;19.20;99.90;;;;;;5090271;28;20818;-82
2023/06/17 04:32:26;;;;;;;18.27;15.73;;;19.20;99.90;;;;;;5089937;28;20184;-82
2023/06/17 04:34:53;;;;;;;18.60;15.73;;;19.30;99.90;;;;;;5089242;28;20302;-82
2023/06/17 04:37:19;;;;;;;18.07;16.10;;;19.20;99.90;;;;;;5089966;28;20957;-82
2023/06/17 04:39:45;;;;;;;19.83;15.00;;;19.30;99.90;;;;;;5090316;28;20451;-80
2023/06/17 04:42:12;;;;;;;16.37;14.77;;;19.30;99.90;;;;;;5089569;28;20427;-82
2023/06/17 04:44:39;;;;;;;17.43;15.50;;;19.30;99.90;;;;;;5071811;28;20533;-80
2023/06/17 04:47:11;;;;;;;18.63;16.67;;;19.30;99.90;;;;;;5089741;28;20908;-83
2023/06/17 04:49:41;;;;;;;17.53;15.70;;;19.30;99.90;;;;;;5088569;28;20443;-82
2023/06/17 04:52:13;;;;;;;18.47;16.50;;;19.30;99.90;;;;;;5087959;28;20423;-82
2023/06/17 04:54:40;;;;;;;19.37;15.37;;;19.30;99.90;;;;;;5087188;28;20982;-82
2023/06/17 04:57:06;;;;;;;16.03;14.37;;;19.30;99.90;;;;;;5069403;28;20485;-83
2023/06/17 04:59:31;;;;;;;17.60;15.17;;;19.30;99.90;;;;;;5087992;28;20428;-81
2023/06/17 05:01:57;;;;;;;15.93;14.23;;;19.30;99.90;;;;;;5087910;28;20583;-83
2023/06/17 05:04:23;;;;;;;17.10;15.30;;;19.30;99.90;;;;;;5069090;28;20694;-80
2023/06/17 05:06:48;;;;;;;16.33;14.73;;;19.30;99.90;;;;;;5086712;28;20202;-80
2023/06/17 05:09:14;;;;;;;17.00;14.87;;;19.30;99.90;;;;;;5087306;28;20191;-80
2023/06/17 05:11:42;;;;;;;16.70;14.90;;;19.30;99.90;;;;;;5087531;28;20178;-82
2023/06/17 05:14:08;;;;;;;17.90;14.57;;;19.30;99.90;;;;;;5070950;28;20227;-79
2023/06/17 05:16:34;;;;;;;19.27;17.20;;;19.30;99.90;;;;;;5070719;28;20785;-79
2023/06/17 05:19:00;;;;;;;16.27;14.57;;;19.40;99.90;;;;;;5086979;28;20456;-80
2023/06/17 05:21:26;;;;;;;16.37;13.93;;;19.40;99.90;;;;;;5068946;28;20412;-80
2023/06/17 05:23:52;;;;;;;15.93;13.60;;;19.40;99.90;;;;;;5068859;28;21008;-79
2023/06/17 05:26:17;;;;;;;16.07;14.47;;;19.40;99.90;;;;;;5086629;28;20457;-80
2023/06/17 05:28:43;;;;;;;15.83;14.33;;;19.50;99.90;;;;;;5087323;28;20546;-80
2023/06/17 05:31:09;;;;;;;17.03;15.00;;;19.50;99.90;;;;;;5086609;28;20174;-82
2023/06/17 05:33:35;;;;;;;17.07;13.63;;;19.50;99.90;;;;;;5087125;28;20790;-81
2023/06/17 05:36:01;;;;;;;15.93;14.33;;;19.50;99.90;;;;;;5068272;28;20428;-80
2023/06/17 05:38:28;;;;;;;15.70;14.00;;;19.50;99.90;;;;;;5066712;28;21004;-80
2023/06/17 05:40:53;;;;;;;16.30;13.80;;;19.50;99.90;;;;;;5073164;28;20428;-82
2023/06/17 05:43:19;;;;;;;16.23;13.10;;;19.50;99.90;;;;;;5066510;28;20476;-80
2023/06/17 05:45:45;;;;;;;14.37;12.87;;;19.50;99.90;;;;;;5065510;28;20382;-82
2023/06/17 05:48:11;;;;;;;15.10;13.17;;;19.50;99.90;;;;;;5062971;28;20519;-80
2023/06/17 05:50:37;;;;;;;14.90;12.87;;;19.60;99.90;;;;;;5065285;28;20200;-82
2023/06/17 05:53:02;;;;;;;15.60;13.70;;;19.60;99.90;;;;;;5047917;28;20464;-81
2023/06/17 05:55:28;;;;;;;14.87;13.30;;;19.60;99.90;;;;;;5066665;28;20666;-81
2023/06/17 05:57:54;;;;;;;16.70;12.80;;;19.70;99.90;;;;;;5064908;28;20587;-82
2023/06/17 06:00:20;;;;;;;13.80;12.30;;;19.70;99.90;;;;;;5065779;28;20279;-80
2023/06/17 06:02:46;;;;;;;17.37;12.87;;;19.70;99.90;;;;;;5047770;28;20664;-80
2023/06/17 06:05:12;;;;;;;18.20;12.70;;;19.80;99.90;;;;;;5048360;28;20895;-80
2023/06/17 06:07:41;;;;;;;15.73;14.00;;;19.80;99.90;;;;;;5065363;28;20259;-82
2023/06/17 06:10:08;;;;;;;13.73;12.13;;;19.80;99.90;;;;;;5065018;28;20221;-81
2023/06/17 06:12:33;;;;;;;13.80;12.30;;;19.80;99.90;;;;;;5047940;28;20438;-82
2023/06/17 06:14:59;;;;;;;16.10;13.43;;;19.80;99.90;;;;;;5067760;28;20479;-81
2023/06/17 06:17:25;;;;;;;14.80;13.10;;;19.80;99.90;;;;;;5055460;28;20186;-80
2023/06/17 06:19:51;;;;;;;14.03;12.57;;;19.80;99.90;;;;;;5067164;28;20229;-82
2023/06/17 06:22:18;;;;;;;14.13;12.73;;;19.90;99.90;;;;;;5084837;28;20518;-82
2023/06/17 06:24:44;;;;;;;14.00;12.60;;;19.90;99.90;;;;;;5066697;28;20444;-80
2023/06/17 06:27:09;;;;;;;19.73;15.93;;;20.00;99.90;;;;;;5064436;28;20790;-81
2023/06/17 06:29:38;;;;;;;18.30;14.40;;;20.10;99.90;;;;;;5085190;28;20647;-82
2023/06/17 06:32:04;;;;;;;13.73;12.43;;;20.10;99.90;;;;;;5083783;28;20183;-82
2023/06/17 06:34:30;;;;;;;14.30;11.83;;;20.10;99.90;;;;;;5066275;28;20473;-79
2023/06/17 06:36:57;;;;;;;17.03;12.67;;;20.20;99.90;;;;;;5066576;28;20428;-80
2023/06/17 06:39:24;;;;;;;14.50;13.00;;;20.20;99.90;;;;;;5085017;28;20193;-80
2023/06/17 06:41:50;;;;;;;14.63;12.40;;;20.30;99.90;;;;;;5066081;28;20435;-80
2023/06/17 06:44:16;;;;;;;18.13;14.37;;;20.30;99.90;;;;;;5081340;28;20453;-82
2023/06/17 06:46:42;;;;;;;14.07;12.07;;;20.40;99.90;;;;;;5083299;28;20169;-80
2023/06/17 06:49:07;;;;;;;18.10;13.73;;;20.40;99.90;;;;;;5084769;28;20416;-82
2023/06/17 06:51:33;;;;;;;13.50;12.10;;;20.50;99.90;;;;;;5084302;28;20169;-82
2023/06/17 06:53:59;;;;;;;13.80;12.20;;;20.60;99.90;;;;;;5084226;28;20313;-82
2023/06/17 06:56:25;;;;;;;13.70;12.30;;;20.60;99.90;;;;;;5085255;28;20177;-80
2023/06/17 06:58:51;;;;;;;13.80;12.40;;;20.70;99.90;;;;;;5084845;28;20200;-82
2023/06/17 07:01:17;;;;;;;14.53;13.10;;;20.70;99.90;;;;;;5086725;28;20438;-82
2023/06/17 07:03:42;;;;;;;12.93;11.63;;;20.80;99.90;;;;;;5087593;28;20492;-80
2023/06/17 07:06:08;;;;;;;13.87;12.40;;;20.90;99.90;;;;;;5087117;28;20636;-81
2023/06/17 07:08:34;;;;;;;13.80;12.40;;;20.90;99.90;;;;;;5102475;28;20176;-82
2023/06/17 07:11:00;;;;;;;12.57;11.30;;;21.00;99.90;;;;;;5102872;28;20237;-82
2023/06/17 07:13:26;;;;;;;15.40;12.83;;;21.00;99.90;;;;;;5087058;28;20473;-80
2023/06/17 07:15:51;;;;;;;14.00;12.70;;;21.10;99.90;;;;;;5090093;28;20183;-80
2023/06/17 07:18:17;;;;;;;15.80;12.13;;;21.10;99.90;;;;;;5091641;28;20407;-82
2023/06/17 07:20:43;;;;;;;13.83;12.43;;;21.10;99.90;;;;;;5091751;28;20261;-82
2023/06/17 07:23:08;;;;;;;14.40;13.00;;;21.10;99.90;;;;;;5091212;28;20275;-80
2023/06/17 07:25:34;;;;;;;13.00;11.67;;;21.20;99.90;;;;;;5091356;28;20187;-79
2023/06/17 07:28:00;;;;;;;14.53;11.90;;;21.20;99.90;;;;;;5091320;28;20172;-82
2023/06/17 07:30:27;;;;;;;14.33;12.20;;;21.30;99.90;;;;;;5107083;28;20226;-82
2023/06/17 07:32:52;;;;;;;15.00;12.77;;;21.40;99.90;;;;;;5091240;28;20267;-80
2023/06/17 07:35:18;;;;;;;13.83;12.40;;;21.40;99.90;;;;;;5091576;28;20527;-80
2023/06/17 07:37:44;;;;;;;13.60;12.03;;;21.50;99.90;;;;;;5091133;28;20181;-82
2023/06/17 07:40:11;;;;;;;14.10;12.73;;;21.60;99.90;;;;;;5090675;28;20769;-79
2023/06/17 07:42:42;;;;;;;15.47;13.93;;;21.70;99.90;;;;;;5090314;28;20482;-81
2023/06/17 07:45:09;;;;;;;14.13;12.00;;;21.80;99.90;;;;;;5090776;28;20431;-82
2023/06/17 07:47:34;;;;;;;13.33;12.03;;;21.80;99.90;;;;;;5072395;28;20848;-82
2023/06/17 07:50:00;;;;;;;13.70;11.90;;;21.90;99.90;;;;;;5073026;28;20467;-80
2023/06/17 07:52:26;;;;;;;13.27;11.53;;;21.90;99.90;;;;;;5072146;28;20196;-80
2023/06/17 07:54:52;;;;;;;16.53;13.67;;;21.90;99.90;;;;;;5090480;28;20208;-81
2023/06/17 07:57:18;;;;;;;14.53;13.03;;;21.90;99.90;;;;;;5071871;28;20275;-82
2023/06/17 07:59:44;;;;;;;14.17;12.27;;;22.00;99.90;;;;;;5091438;28;20511;-80
2023/06/17 08:02:10;;;;;;;13.80;12.40;;;22.00;99.90;;;;;;5090215;28;20200;-80
2023/06/17 08:04:37;;;;;;;13.13;11.93;;;22.10;99.90;;;;;;5091024;28;20542;-83
2023/06/17 08:07:04;;;;;;;15.30;12.30;;;22.10;99.90;;;;;;5071577;28;20436;-82
2023/06/17 08:09:30;;;;;;;17.20;11.90;;;22.10;99.90;;;;;;5090555;28;20417;-80
2023/06/17 08:11:56;;;;;;;14.67;11.67;;;22.20;99.90;;;;;;5071991;28;20442;-82
2023/06/17 08:14:21;;;;;;;18.43;12.87;;;22.20;99.90;;;;;;5072002;28;20220;-82
2023/06/17 08:16:47;;;;;;;17.07;13.40;;;22.30;99.90;;;;;;5070476;28;20440;-80
2023/06/17 08:19:13;;;;;;;13.17;11.80;;;22.30;99.90;;;;;;5088555;28;20551;-82
2023/06/17 08:21:41;;;;;;;12.37;11.20;;;22.30;99.90;;;;;;5070315;28;20230;-80
2023/06/17 08:24:26;;;;;;;13.70;11.97;;;22.40;99.90;;;;;;5070133;28;20358;-80
2023/06/17 08:26:53;;;;;;;14.20;12.30;;;22.40;99.90;;;;;;5088059;28;20474;-80
2023/06/17 08:29:20;;;;;;;14.60;13.00;;;22.50;99.90;;;;;;5070502;28;20456;-80
2023/06/17 08:31:48;;;;;;;13.63;11.57;;;22.50;99.90;;;;;;5071688;28;20425;-82
2023/06/17 08:34:15;;;;;;;14.07;11.50;;;22.50;99.90;;;;;;5071711;28;20593;-80
2023/06/17 08:36:43;;;;;;;14.00;12.50;;;22.60;99.90;;;;;;5070353;28;20417;-82
2023/06/17 08:39:09;;;;;;;13.47;12.27;;;22.60;99.90;;;;;;5088670;28;20432;-81
2023/06/17 08:41:40;;;;;;;14.10;11.30;;;22.60;99.90;;;;;;5088592;28;20504;-80
2023/06/17 08:44:07;;;;;;;13.33;11.97;;;22.60;99.90;;;;;;5087840;28;20465;-82
2023/06/17 08:46:34;;;;;;;13.70;12.40;;;22.70;99.90;;;;;;5070142;28;20417;-80
2023/06/17 08:49:02;;;;;;;14.80;12.80;;;22.80;99.90;;;;;;5070884;28;20567;-80
2023/06/17 08:51:28;;;;;;;13.17;11.93;;;22.90;99.90;;;;;;5071140;28;20494;-80
2023/06/17 08:53:55;;;;;;;13.23;11.93;;;23.00;99.90;;;;;;5089754;28;20464;-82
2023/06/17 08:56:21;;;;;;;12.47;11.20;;;23.00;99.90;;;;;;5069849;28;20419;-79
2023/06/17 08:58:47;;;;;;;13.50;12.00;;;23.10;99.90;;;;;;5069883;28;20524;-79
2023/06/17 09:01:13;;;;;;;14.03;12.30;;;23.10;99.90;;;;;;5069500;28;20199;-82
2023/06/17 09:03:41;;;;;;;13.77;12.37;;;23.20;99.90;;;;;;5069745;28;20826;-80
2023/06/17 09:06:18;;;;;;;13.13;11.70;;;23.20;99.90;;;;;;5069315;28;20860;-80
2023/06/17 09:08:44;;;;;;;12.23;10.93;;;23.30;99.90;;;;;;5069000;28;20452;-82
2023/06/17 09:11:10;;;;;;;12.03;10.93;;;23.40;99.90;;;;;;5088872;28;20416;-80
2023/06/17 09:13:36;;;;;;;11.50;10.17;;;23.40;99.90;;;;;;5089655;28;20681;-82
2023/06/17 09:16:02;;;;;;;11.30;9.40;;;23.50;99.90;;;;;;5089305;28;20396;-82
2023/06/17 09:18:32;;;;;;;14.07;11.30;;;23.60;99.90;;;;;;5089410;28;20420;-82
2023/06/17 09:20:58;;;;;;;11.63;10.43;;;23.70;99.90;;;;;;5071354;28;20398;-80
2023/06/17 09:23:24;;;;;;;12.60;10.47;;;23.70;99.90;;;;;;5089312;28;20422;-80
2023/06/17 09:26:03;;;;;;;11.93;10.70;;;23.80;99.90;;;;;;5089341;28;20196;-82
2023/06/17 09:28:30;;;;;;;11.43;10.33;;;23.90;99.90;;;;;;5070912;28;20422;-83
2023/06/17 09:30:57;;;;;;;11.03;10.03;;;23.90;99.90;;;;;;5089010;28;20453;-82
2023/06/17 09:33:27;;;;;;;11.67;10.60;;;24.00;99.90;;;;;;5087541;28;20468;-81
2023/06/17 09:36:08;;;;;;;11.43;10.40;;;24.10;99.90;;;;;;5087489;28;20400;-82
2023/06/17 09:38:37;;;;;;;14.37;10.10;;;24.00;99.90;;;;;;5086882;28;20432;-80
2023/06/17 09:41:04;;;;;;;15.23;10.37;;;24.10;99.90;;;;;;5088613;28;20451;-82
2023/06/17 09:43:30;;;;;;;11.03;9.90;;;24.00;99.90;;;;;;5088671;28;20938;-80
2023/06/17 09:46:01;;;;;;;10.70;9.67;;;24.10;99.90;;;;;;5088148;28;20502;-82
2023/06/17 09:48:37;;;;;;;11.03;9.90;;;24.10;99.90;;;;;;5088660;28;20182;-82
2023/06/17 09:51:09;;;;;;;10.87;9.77;;;24.10;99.90;;;;;;5089056;28;20408;-80
2023/06/17 09:53:36;;;;;;;11.43;9.77;;;24.20;99.90;;;;;;5087423;28;20559;-82
2023/06/17 09:56:02;;;;;;;10.70;9.60;;;24.20;99.90;;;;;;5067208;28;20426;-82
2023/06/17 09:58:30;;;;;;;10.60;9.60;;;24.20;99.90;;;;;;5074614;28;20963;-80
2023/06/17 10:01:05;;;;;;;11.13;10.03;;;24.20;99.90;;;;;;5085560;28;20453;-82
2023/06/17 10:03:33;;;;;;;10.63;9.63;;;24.20;99.90;;;;;;5086772;28;21015;-82
2023/06/17 10:06:07;;;;;;;11.07;9.53;;;24.20;99.90;;;;;;5068386;28;20413;-82
2023/06/17 10:08:35;;;;;;;10.67;9.67;;;24.20;99.90;;;;;;5086561;28;20454;-82
2023/06/17 10:11:01;;;;;;;10.83;9.13;;;24.30;99.90;;;;;;5087779;28;20464;-82
2023/06/17 10:13:30;;;;;;;10.90;9.90;;;24.40;99.90;;;;;;5087776;28;20491;-82
2023/06/17 10:15:58;;;;;;;12.43;11.13;;;24.40;99.90;;;;;;5068082;28;20794;-82
2023/06/17 10:18:24;;;;;;;10.47;9.47;;;24.40;99.90;;;;;;5067271;28;20425;-80
2023/06/17 10:20:51;;;;;;;10.00;9.00;;;24.40;99.90;;;;;;5067444;28;20441;-80
2023/06/17 10:23:23;;;;;;;9.40;8.53;;;24.40;99.90;;;;;;5083208;28;20522;-82
2023/06/17 10:25:48;;;;;;;11.87;9.03;;;24.40;99.90;;;;;;5068926;28;20451;-80
2023/06/17 10:28:15;;;;;;;9.90;9.10;;;24.40;99.90;;;;;;5086530;28;20428;-81
2023/06/17 10:30:46;;;;;;;10.20;9.07;;;24.50;99.90;;;;;;5087314;28;20196;-80
2023/06/17 10:33:11;;;;;;;10.30;9.30;;;24.50;99.90;;;;;;5083845;28;20698;-82
2023/06/17 10:35:46;;;;;;;11.50;8.90;;;24.60;99.90;;;;;;5087008;28;20927;-80
2023/06/17 10:38:29;;;;;;;9.40;8.50;;;24.60;99.90;;;;;;5083663;28;20198;-80
2023/06/17 10:40:56;;;;;;;9.60;8.70;;;24.70;99.90;;;;;;5084836;28;20404;-79
2023/06/17 10:43:22;;;;;;;10.00;9.03;;;24.80;99.90;;;;;;5086148;28;20472;-82
2023/06/17 10:45:55;;;;;;;8.90;8.10;;;24.80;99.90;;;;;;5086788;28;20977;-82
2023/06/17 10:48:24;;;;;;;10.03;9.13;;;24.90;99.90;;;;;;5085150;28;20536;-82
2023/06/17 10:51:00;;;;;;;10.00;9.07;;;24.90;99.90;;;;;;5086522;28;20450;-82
2023/06/17 10:53:31;;;;;;;10.00;9.00;;;25.00;99.90;;;;;;5083374;28;20459;-82
2023/06/17 10:55:58;;;;;;;9.30;8.43;;;25.00;99.90;;;;;;5086800;28;20742;-80
2023/06/17 10:58:31;;;;;;;9.27;8.47;;;25.10;99.90;;;;;;5083616;28;20828;-80
2023/06/17 11:01:18;;;;;;;9.10;8.10;;;25.10;99.90;;;;;;5086858;28;21082;-82
2023/06/17 11:03:44;;;;;;;10.40;9.40;;;25.10;99.90;;;;;;5085496;28;20436;-82
2023/06/17 11:06:10;;;;;;;9.50;8.60;;;25.10;99.90;;;;;;5085677;28;20450;-80
2023/06/17 11:08:37;;;;;;;9.40;8.60;;;25.20;99.90;;;;;;5065021;28;20429;-81
2023/06/17 11:11:08;;;;;;;12.20;9.20;;;25.30;99.90;;;;;;5066942;28;20187;-82
2023/06/17 11:13:34;;;;;;;10.17;9.17;;;25.40;99.90;;;;;;5062361;28;20473;-80
2023/06/17 11:15:59;;;;;;;10.50;9.57;;;25.30;99.90;;;;;;5083421;28;20424;-81
2023/06/17 11:18:25;;;;;;;10.40;9.37;;;25.50;99.90;;;;;;5072340;28;20425;-83
2023/06/17 11:20:51;;;;;;;11.00;9.90;;;25.50;99.90;;;;;;5080461;28;20180;-82
2023/06/17 11:23:18;;;;;;;11.23;9.93;;;25.50;99.90;;;;;;5082353;28;20534;-81
2023/06/17 11:25:44;;;;;;;11.60;10.30;;;25.40;99.90;;;;;;5083019;28;20280;-82
2023/06/17 11:28:11;;;;;;;10.60;9.53;;;25.50;99.90;;;;;;5083900;28;20508;-80
2023/06/17 11:30:36;;;;;;;10.47;9.50;;;25.50;99.90;;;;;;5086516;28;20458;-80
2023/06/17 11:33:02;;;;;;;11.97;10.97;;;25.50;99.90;;;;;;5062900;28;21010;-81
2023/06/17 11:35:28;;;;;;;11.10;10.10;;;25.70;99.90;;;;;;5063266;28;20559;-80
2023/06/17 11:37:54;;;;;;;12.50;11.40;;;25.70;99.90;;;;;;5084335;28;20527;-80
2023/06/17 11:40:22;;;;;;;11.10;10.00;;;25.80;99.90;;;;;;5066518;28;20192;-80
2023/06/17 11:42:48;;;;;;;14.03;12.67;;;25.80;99.90;;;;;;5082691;28;20476;-83
2023/06/17 11:45:14;;;;;;;10.87;9.93;;;25.90;99.90;;;;;;5084615;28;20429;-80
2023/06/17 11:47:40;;;;;;;11.93;10.90;;;25.90;99.90;;;;;;5062750;28;20178;-80
2023/06/17 11:50:07;;;;;;;11.27;10.23;;;25.90;99.90;;;;;;5081322;28;20952;-80
2023/06/17 11:52:36;;;;;;;13.77;11.23;;;25.90;99.90;;;;;;5084087;28;20696;-82
2023/06/17 11:55:02;;;;;;;13.63;11.40;;;26.00;99.90;;;;;;5086402;28;20460;-81
2023/06/17 11:57:28;;;;;;;11.93;10.53;;;26.00;99.90;;;;;;5067209;28;20428;-82
2023/06/17 12:00:04;;;;;;;12.43;11.13;;;26.00;99.90;;;;;;5084552;28;20433;-80
2023/06/17 12:02:33;;;;;;;13.07;11.77;;;26.10;99.90;;;;;;5069740;28;20180;-80
2023/06/17 12:05:03;;;;;;;12.40;11.20;;;26.10;99.90;;;;;;5066954;28;20466;-79
2023/06/17 12:07:35;;;;;;;12.20;10.90;;;26.10;99.90;;;;;;5086577;28;20444;-80
2023/06/17 12:10:01;;;;;;;11.90;10.37;;;26.10;99.90;;;;;;5068795;28;20853;-80
2023/06/17 12:12:32;;;;;;;16.53;12.37;;;26.20;99.90;;;;;;5086634;28;20532;-80
2023/06/17 12:15:12;;;;;;;12.10;11.07;;;26.30;99.90;;;;;;5089059;28;20235;-80
2023/06/17 12:17:43;;;;;;;13.33;11.13;;;26.30;99.90;;;;;;5083412;28;20528;-83
2023/06/17 12:20:17;;;;;;;10.60;9.60;;;26.30;99.90;;;;;;5084761;28;20413;-80
2023/06/17 12:22:44;;;;;;;10.73;9.73;;;26.40;99.90;;;;;;5084553;28;20696;-80
2023/06/17 12:25:13;;;;;;;13.40;12.00;;;26.50;99.90;;;;;;5085374;28;20511;-82
2023/06/17 12:27:40;;;;;;;11.63;10.57;;;26.60;99.90;;;;;;5085204;28;20940;-81
2023/06/17 12:30:07;;;;;;;10.33;9.43;;;26.60;99.90;;;;;;5066669;28;20435;-83